Time;durP1;ratioP1;P1;durP2;ratioP2;P2;SDS_P1;SDS_P2;PMS_P1;PMS_P2;Temp;Humidity;BMP_temperature;BMP_pressure;BME280_temperature;BME280_humidity;BME280_pressure;Samples;Min_cycle;Max_cycle;Signal;HPM_P1;HPM_P2
2022/04/16 00:02:03;;;;;;;27.40;19.05;;;;;;;6.55;84.43;102951.97;5156352;27;20019;-58
2022/04/16 00:04:28;;;;;;;26.33;19.60;;;;;;;6.54;84.40;102958.53;5156087;27;20364;-58
2022/04/16 00:06:55;;;;;;;28.00;20.48;;;;;;;6.49;84.95;102963.91;5156273;27;20050;-56
2022/04/16 00:09:20;;;;;;;28.17;20.13;;;;;;;6.49;84.77;102956.47;5137468;27;20386;-57
2022/04/16 00:11:45;;;;;;;27.90;20.73;;;;;;;6.47;84.64;102955.84;5156512;27;20025;-57
2022/04/16 00:14:12;;;;;;;27.25;19.58;;;;;;;6.44;85.28;102955.47;5137341;27;20042;-56
2022/04/16 00:16:38;;;;;;;27.92;20.02;;;;;;;6.42;85.16;102952.97;5156166;27;20026;-58
2022/04/16 00:19:03;;;;;;;28.50;19.58;;;;;;;6.40;85.10;102955.09;5156039;27;20026;-57
2022/04/16 00:21:28;;;;;;;28.15;20.50;;;;;;;6.37;85.69;102966.56;5156121;27;20039;-57
2022/04/16 00:23:53;;;;;;;28.67;21.02;;;;;;;6.34;86.02;102969.75;5156021;27;20026;-57
2022/04/16 00:26:21;;;;;;;27.58;19.20;;;;;;;6.34;85.80;102967.00;5155956;27;20051;-58
2022/04/16 00:28:47;;;;;;;28.33;20.02;;;;;;;6.29;86.46;102961.31;5137371;27;20081;-57
2022/04/16 00:31:14;;;;;;;26.27;19.42;;;;;;;6.28;86.34;102963.25;5155475;27;20475;-56
2022/04/16 00:33:39;;;;;;;27.70;20.50;;;;;;;6.26;86.04;102964.53;5155632;27;20042;-57
2022/04/16 00:36:05;;;;;;;27.08;19.95;;;;;;;6.23;86.52;102971.31;5155577;27;20057;-57
2022/04/16 00:38:30;;;;;;;29.30;20.73;;;;;;;6.20;86.33;102969.84;5155806;27;20023;-57
2022/04/16 00:40:55;;;;;;;28.90;20.58;;;;;;;6.20;86.36;102975.34;5155629;27;20072;-56
2022/04/16 00:43:21;;;;;;;28.50;20.05;;;;;;;6.17;86.60;102967.56;5155611;27;20469;-56
2022/04/16 00:45:47;;;;;;;29.23;21.58;;;;;;;6.15;87.34;102966.09;5155142;27;20079;-57
2022/04/16 00:48:12;;;;;;;27.70;20.85;;;;;;;6.15;87.61;102971.59;5155199;27;20030;-56
2022/04/16 00:50:38;;;;;;;28.30;20.50;;;;;;;6.14;87.16;102968.00;5136700;27;20046;-55
2022/04/16 00:53:03;;;;;;;29.77;22.30;;;;;;;6.11;87.26;102971.19;5155196;27;20426;-57
2022/04/16 00:55:29;;;;;;;30.73;21.67;;;;;;;6.08;87.27;102963.41;5155444;27;20030;-56
2022/04/16 00:57:55;;;;;;;28.65;21.50;;;;;;;6.08;87.59;102966.16;5155171;27;20041;-56
2022/04/16 01:00:20;;;;;;;30.70;21.88;;;;;;;6.08;87.82;102967.00;5154807;27;20018;-56
2022/04/16 01:02:46;;;;;;;29.85;21.30;;;;;;;6.06;88.20;102965.53;5155548;27;20038;-55
2022/04/16 01:05:12;;;;;;;30.08;21.92;;;;;;;6.03;88.00;102961.34;5155220;27;20087;-57
2022/04/16 01:07:48;;;;;;;29.65;22.67;;;;;;;6.01;88.21;102963.47;5136200;27;20022;-57
2022/04/16 01:10:13;;;;;;;32.05;22.58;;;;;;;6.01;88.00;102960.72;5155001;27;20075;-57
2022/04/16 01:12:39;;;;;;;30.52;23.33;;;;;;;5.99;87.99;102968.31;5154693;27;20424;-57
2022/04/16 01:15:05;;;;;;;32.63;22.58;;;;;;;5.98;88.41;102965.78;5135994;27;20061;-57
2022/04/16 01:17:31;;;;;;;30.60;22.13;;;;;;;5.97;88.68;102970.41;5154794;27;20483;-57
2022/04/16 01:19:57;;;;;;;29.92;22.02;;;;;;;5.98;88.75;102979.53;5154481;27;20058;-57
2022/04/16 01:22:29;;;;;;;30.83;22.65;;;;;;;5.95;89.39;102972.56;5154679;27;20026;-57
2022/04/16 01:24:54;;;;;;;32.22;23.23;;;;;;;5.95;89.24;102978.06;5154313;27;20043;-58
2022/04/16 01:27:19;;;;;;;32.20;23.25;;;;;;;5.92;89.14;102976.59;5135871;27;20080;-57
2022/04/16 01:29:47;;;;;;;30.90;22.58;;;;;;;5.94;88.98;102976.38;5154328;27;20023;-57
2022/04/16 01:32:12;;;;;;;31.90;22.90;;;;;;;5.91;89.79;102974.06;5154382;27;20364;-57
2022/04/16 01:34:38;;;;;;;31.60;22.55;;;;;;;5.92;89.14;102984.81;5154184;27;20033;-57
2022/04/16 01:37:04;;;;;;;30.90;22.70;;;;;;;5.90;89.57;102977.88;5154424;27;20075;-56
2022/04/16 01:39:30;;;;;;;32.47;23.95;;;;;;;5.88;89.63;102990.97;5154009;27;20115;-57
2022/04/16 01:41:57;;;;;;;31.67;23.58;;;;;;;5.84;89.23;102987.84;5154006;27;20026;-56
2022/04/16 01:44:23;;;;;;;30.75;22.77;;;;;;;5.83;89.93;102994.41;5154089;27;20451;-57
2022/04/16 01:46:48;;;;;;;32.15;23.65;;;;;;;5.81;90.34;102992.94;5154465;27;20045;-57
2022/04/16 01:49:13;;;;;;;33.83;23.83;;;;;;;5.80;89.78;102994.00;5153988;27;20054;-57
2022/04/16 01:51:38;;;;;;;32.25;23.55;;;;;;;5.78;90.50;102989.56;5134683;27;20053;-57
2022/04/16 01:54:04;;;;;;;30.52;22.98;;;;;;;5.81;90.41;102992.94;5154208;27;20023;-56
2022/04/16 01:56:30;;;;;;;31.73;23.38;;;;;;;5.77;90.32;102996.13;5154302;27;20026;-57
2022/04/16 01:58:55;;;;;;;31.98;23.85;;;;;;;5.76;90.53;102988.94;5154444;27;20424;-57
2022/04/16 02:01:22;;;;;;;32.75;23.42;;;;;;;5.73;90.55;102994.03;5154485;27;20018;-57
2022/04/16 02:03:47;;;;;;;32.97;23.60;;;;;;;5.72;90.62;102997.84;5154729;27;20031;-57
2022/04/16 02:06:13;;;;;;;32.83;24.67;;;;;;;5.73;90.30;102988.53;5154330;27;20111;-58
2022/04/16 02:08:38;;;;;;;32.97;23.98;;;;;;;5.70;90.66;102991.75;5154204;27;20069;-57
2022/04/16 02:11:03;;;;;;;33.25;23.38;;;;;;;5.71;90.57;102990.69;5154128;27;20027;-57
2022/04/16 02:13:30;;;;;;;31.17;23.73;;;;;;;5.68;91.03;102991.94;5135282;27;20539;-57
2022/04/16 02:15:56;;;;;;;33.42;23.33;;;;;;;5.67;90.62;102992.19;5153796;27;20057;-57
2022/04/16 02:18:23;;;;;;;33.75;24.23;;;;;;;5.62;91.61;102988.19;5153967;27;20092;-57
2022/04/16 02:20:49;;;;;;;33.83;24.38;;;;;;;5.59;91.54;102980.41;5153767;27;20091;-58
2022/04/16 02:23:14;;;;;;;31.42;23.25;;;;;;;5.58;91.65;102989.69;5153771;27;20022;-57
2022/04/16 02:25:42;;;;;;;33.45;23.65;;;;;;;5.55;92.24;102990.13;5154124;27;20055;-57
2022/04/16 02:28:08;;;;;;;33.03;23.40;;;;;;;5.54;91.92;102982.94;5153969;27;20060;-57
2022/04/16 02:30:33;;;;;;;33.88;25.52;;;;;;;5.49;92.62;102982.78;5154012;27;20106;-57
2022/04/16 02:32:58;;;;;;;33.67;23.70;;;;;;;5.49;91.86;102979.16;5154134;27;20126;-57
2022/04/16 02:35:24;;;;;;;33.53;24.02;;;;;;;5.45;92.43;102990.59;5153800;27;20019;-57
2022/04/16 02:37:50;;;;;;;34.22;24.10;;;;;;;5.44;91.75;102991.66;5153689;27;20083;-57
2022/04/16 02:40:15;;;;;;;33.88;25.52;;;;;;;5.42;92.60;102987.47;5153831;27;20019;-57
2022/04/16 02:42:43;;;;;;;33.08;24.70;;;;;;;5.39;92.45;102983.22;5153947;27;20105;-56
2022/04/16 02:47:56;;;;;;;34.42;24.00;;;;;;;5.36;92.57;102991.06;5154205;27;20067;-58
2022/04/16 02:50:25;;;;;;;32.10;22.80;;;;;;;5.32;93.19;102998.88;5153798;27;20110;-57
2022/04/16 02:52:51;;;;;;;33.17;23.90;;;;;;;5.31;92.25;103002.69;5156642;27;20477;-57
2022/04/16 02:55:17;;;;;;;34.53;24.55;;;;;;;5.28;92.87;103003.16;5157652;27;20045;-57
2022/04/16 02:57:43;;;;;;;33.50;23.83;;;;;;;5.26;92.76;103003.34;5157582;27;20455;-57
2022/04/16 03:00:10;;;;;;;33.90;23.77;;;;;;;5.23;93.44;103002.94;5157585;27;20023;-58
2022/04/16 03:02:36;;;;;;;34.08;24.67;;;;;;;5.22;93.37;103015.84;5157600;27;20105;-56
2022/04/16 03:05:03;;;;;;;33.55;24.17;;;;;;;5.19;93.50;103013.50;5157694;27;20027;-57
2022/04/16 03:07:28;;;;;;;33.60;24.65;;;;;;;5.17;94.02;103012.06;5157345;27;20041;-56
2022/04/16 03:09:54;;;;;;;35.78;24.65;;;;;;;5.16;93.75;103016.69;5157393;27;20027;-56
2022/04/16 03:12:19;;;;;;;34.10;24.45;;;;;;;5.14;94.28;103016.91;5157644;27;20116;-56
2022/04/16 03:17:31;;;;;;;31.90;22.40;;;;;;;5.15;93.69;103013.09;5157371;27;20422;-58
2022/04/16 03:19:57;;;;;;;34.13;24.30;;;;;;;5.13;94.19;103017.13;5157175;27;20449;-57
2022/04/16 03:22:22;;;;;;;34.40;24.98;;;;;;;5.12;95.06;103013.53;5138494;27;20068;-58
2022/04/16 03:24:48;;;;;;;35.85;25.80;;;;;;;5.10;94.69;103007.41;5156934;27;20099;-57
2022/04/16 03:27:13;;;;;;;35.60;26.55;;;;;;;5.08;95.09;103009.53;5156853;27;20019;-55
2022/04/16 03:29:39;;;;;;;37.65;25.90;;;;;;;5.06;94.65;103017.13;5157317;27;20023;-58
2022/04/16 03:32:05;;;;;;;36.38;26.50;;;;;;;5.02;95.10;103015.88;5156985;27;20117;-57
2022/04/16 03:34:30;;;;;;;37.55;26.52;;;;;;;5.02;94.92;103015.03;5156912;27;20031;-56
2022/04/16 03:36:56;;;;;;;37.08;25.92;;;;;;;5.00;95.80;103020.75;5156749;27;20018;-57
2022/04/16 03:39:22;;;;;;;35.95;26.00;;;;;;;4.97;95.68;103016.53;5156923;27;20463;-57
2022/04/16 03:41:47;;;;;;;36.55;25.85;;;;;;;4.97;94.80;103016.53;5156913;27;20015;-57
2022/04/16 03:44:13;;;;;;;38.60;26.73;;;;;;;4.95;96.07;103015.06;5157099;27;20424;-57
2022/04/16 03:46:38;;;;;;;36.88;25.27;;;;;;;4.94;95.70;103010.63;5156750;27;20033;-56
2022/04/16 03:49:03;;;;;;;36.33;25.42;;;;;;;4.93;95.31;103014.41;5156517;27;20099;-57
2022/04/16 03:51:29;;;;;;;36.70;26.17;;;;;;;4.92;95.12;103013.59;5156662;27;20026;-56
2022/04/16 03:53:54;;;;;;;36.90;26.17;;;;;;;4.91;95.70;103022.88;5156578;27;20046;-56
2022/04/16 04:01:48;;;;;;;40.25;28.00;;;;;;;4.83;96.55;103021.19;5156515;27;20492;-57
2022/04/16 04:04:13;;;;;;;38.67;26.70;;;;;;;4.82;96.07;103024.16;5155797;27;20046;-55
2022/04/16 04:06:38;;;;;;;39.13;26.60;;;;;;;4.77;96.68;103022.06;5156428;27;20068;-57
2022/04/16 04:09:04;;;;;;;40.00;27.05;;;;;;;4.76;96.77;103014.06;5156359;27;20027;-56
2022/04/16 04:11:29;;;;;;;37.83;28.25;;;;;;;4.77;97.86;103021.22;5156602;27;20035;-56
2022/04/16 04:13:54;;;;;;;38.85;27.13;;;;;;;4.76;97.43;103023.09;5137649;27;20434;-58
2022/04/16 04:16:19;;;;;;;38.53;26.90;;;;;;;4.74;97.53;103027.97;5156372;27;20026;-56
2022/04/16 04:18:45;;;;;;;37.88;27.95;;;;;;;4.71;96.90;103031.16;5156068;27;20026;-56
2022/04/16 04:21:11;;;;;;;37.05;26.73;;;;;;;4.71;97.53;103033.03;5155849;27;20049;-57
2022/04/16 04:23:36;;;;;;;38.42;26.95;;;;;;;4.71;97.57;103036.63;5156170;27;20046;-57
2022/04/16 04:26:03;;;;;;;38.13;27.92;;;;;;;4.68;97.66;103040.63;5155907;27;20494;-56
2022/04/16 04:28:28;;;;;;;40.22;27.67;;;;;;;4.68;97.61;103042.53;5156011;27;20050;-57
2022/04/16 04:30:53;;;;;;;41.60;27.60;;;;;;;4.67;97.68;103033.47;5155773;27;20027;-57
2022/04/16 04:33:18;;;;;;;38.30;28.52;;;;;;;4.67;98.10;103046.31;5155741;27;20027;-56
2022/04/16 04:35:44;;;;;;;39.00;27.98;;;;;;;4.66;98.32;103037.25;5155897;27;20022;-56
2022/04/16 04:38:09;;;;;;;39.58;28.17;;;;;;;4.65;98.41;103043.81;5155766;27;20468;-56
2022/04/16 04:40:34;;;;;;;38.80;28.60;;;;;;;4.63;98.38;103045.91;5155453;27;20408;-57
2022/04/16 04:42:59;;;;;;;39.78;27.63;;;;;;;4.64;97.83;103044.00;5155494;27;20026;-56
2022/04/16 04:45:25;;;;;;;39.33;27.33;;;;;;;4.66;98.28;103050.97;5155426;27;20109;-56
2022/04/16 04:47:50;;;;;;;40.75;28.40;;;;;;;4.65;98.09;103054.78;5155986;27;20029;-56
2022/04/16 04:50:15;;;;;;;41.53;30.77;;;;;;;4.65;98.96;103056.66;5155353;27;20443;-57
2022/04/16 04:52:41;;;;;;;42.72;28.92;;;;;;;4.66;99.10;103064.69;5155391;27;20041;-56
2022/04/16 04:55:09;;;;;;;43.20;28.38;;;;;;;4.57;98.96;103051.38;5155346;27;20543;-56
2022/04/16 04:57:34;;;;;;;42.92;29.83;;;;;;;4.67;98.22;103068.25;5155230;27;20144;-57
2022/04/16 04:59:59;;;;;;;40.03;28.00;;;;;;;4.66;98.12;103069.31;5155168;27;20141;-57
2022/04/16 05:02:25;;;;;;;38.55;27.73;;;;;;;4.69;98.45;103071.63;5155134;27;20459;-57
2022/04/16 05:04:50;;;;;;;40.67;28.63;;;;;;;4.69;98.39;103074.38;5136343;27;20072;-57
2022/04/16 05:07:15;;;;;;;42.55;27.75;;;;;;;4.72;97.85;103078.59;5136285;27;20027;-57
2022/04/16 05:09:40;;;;;;;41.97;27.88;;;;;;;4.69;98.34;103080.69;5154944;27;20403;-57
2022/04/16 05:12:06;;;;;;;41.05;28.85;;;;;;;4.72;98.62;103075.84;5155140;27;20111;-57
2022/04/16 05:14:34;;;;;;;39.92;27.75;;;;;;;4.74;98.03;103091.03;5135736;27;20022;-55
2022/04/16 05:16:59;;;;;;;39.78;27.58;;;;;;;4.77;98.34;103087.88;5154459;27;20079;-57
2022/04/16 05:19:25;;;;;;;42.70;28.35;;;;;;;4.79;98.43;103090.41;5155055;27;20027;-57
2022/04/16 05:21:50;;;;;;;41.97;28.52;;;;;;;4.80;97.96;103090.19;5154670;27;20027;-56
2022/04/16 05:24:15;;;;;;;42.10;28.10;;;;;;;4.84;98.43;103087.88;5154571;27;20036;-57
2022/04/16 05:26:41;;;;;;;41.75;27.33;;;;;;;4.88;98.02;103088.28;5154447;27;20042;-57
2022/04/16 05:29:06;;;;;;;40.00;27.63;;;;;;;4.91;98.58;103088.69;5154550;27;20462;-55
2022/04/16 05:31:33;;;;;;;41.90;28.88;;;;;;;4.93;98.64;103092.09;5135920;27;20027;-55
2022/04/16 05:36:43;;;;;;;42.35;29.05;;;;;;;4.99;97.87;103095.88;5154475;27;20094;-56
2022/04/16 05:39:09;;;;;;;39.55;28.00;;;;;;;5.04;97.58;103097.97;5154389;27;20058;-57
2022/04/16 05:41:34;;;;;;;41.28;28.95;;;;;;;5.06;97.96;103104.94;5153996;27;20054;-56
2022/04/16 05:44:00;;;;;;;43.97;30.58;;;;;;;5.09;98.35;103098.16;5154349;27;20060;-57
2022/04/16 05:46:26;;;;;;;42.50;30.40;;;;;;;5.14;98.09;103095.66;5154348;27;20527;-58
2022/04/16 05:48:51;;;;;;;40.92;28.17;;;;;;;5.17;98.21;103094.38;5154614;27;20539;-57
2022/04/16 05:51:17;;;;;;;43.33;29.35;;;;;;;5.21;98.03;103099.22;5154505;27;20023;-58
2022/04/16 05:53:44;;;;;;;43.72;29.13;;;;;;;5.24;97.91;103103.41;5154120;27;20451;-56
2022/04/16 05:56:10;;;;;;;44.22;30.23;;;;;;;5.29;98.47;103104.47;5153774;27;20035;-56
2022/04/16 05:58:36;;;;;;;42.53;28.98;;;;;;;5.40;97.98;103113.94;5154147;27;20099;-57
2022/04/16 06:01:02;;;;;;;44.53;29.90;;;;;;;5.45;98.11;103110.53;5154210;27;20111;-57
2022/04/16 06:03:28;;;;;;;39.38;27.80;;;;;;;5.50;97.68;103113.50;5154074;27;20466;-56
2022/04/16 06:05:54;;;;;;;45.33;30.05;;;;;;;5.58;98.06;103126.13;5135690;27;20382;-57
2022/04/16 06:08:20;;;;;;;44.78;30.45;;;;;;;5.67;98.05;103126.75;5154122;27;20026;-55
2022/04/16 06:10:45;;;;;;;45.58;30.83;;;;;;;5.72;98.33;103126.91;5153406;27;20109;-57
2022/04/16 06:13:11;;;;;;;44.67;30.15;;;;;;;5.78;97.84;103132.41;5154075;27;20076;-58
2022/04/16 06:15:40;;;;;;;42.72;30.02;;;;;;;5.88;97.71;103142.09;5154206;27;20026;-58
2022/04/16 06:18:05;;;;;;;42.83;29.73;;;;;;;5.98;97.62;103139.72;5154162;27;20022;-57
2022/04/16 06:20:30;;;;;;;44.75;32.17;;;;;;;6.05;97.58;103142.47;5154279;27;20384;-57
2022/04/16 06:22:56;;;;;;;43.75;30.52;;;;;;;6.11;97.04;103144.31;5154011;27;20041;-58
2022/04/16 06:25:22;;;;;;;42.13;29.35;;;;;;;6.17;97.30;103142.59;5153572;27;20043;-57
2022/04/16 06:27:47;;;;;;;45.28;30.55;;;;;;;6.23;97.02;103141.75;5157079;27;20115;-57
2022/04/16 06:30:13;;;;;;;43.88;30.08;;;;;;;6.28;96.67;103141.09;5158212;27;20034;-57
2022/04/16 06:32:38;;;;;;;43.85;29.40;;;;;;;6.36;96.65;103149.91;5158241;27;20022;-57
2022/04/16 06:35:05;;;;;;;43.40;29.65;;;;;;;6.42;96.32;103150.09;5139523;27;20102;-58
2022/04/16 06:37:34;;;;;;;42.22;29.95;;;;;;;6.49;95.81;103148.97;5139321;27;20094;-58
2022/04/16 06:39:59;;;;;;;45.20;31.58;;;;;;;6.55;96.08;103147.25;5157833;27;20029;-58
2022/04/16 06:42:24;;;;;;;43.03;30.00;;;;;;;6.63;95.42;103146.13;5157843;27;20015;-58
2022/04/16 06:44:50;;;;;;;43.38;29.67;;;;;;;6.70;95.37;103138.66;5157779;27;20035;-58
2022/04/16 06:47:15;;;;;;;42.83;29.30;;;;;;;6.77;95.09;103142.22;5157316;27;20026;-58
2022/04/16 06:49:40;;;;;;;46.20;30.77;;;;;;;6.87;94.83;103147.22;5157788;27;20083;-58
2022/04/16 06:52:06;;;;;;;43.03;30.27;;;;;;;6.97;94.61;103153.06;5157900;27;20026;-57
2022/04/16 06:54:31;;;;;;;42.63;28.10;;;;;;;7.08;94.01;103147.91;5157844;27;20023;-57
2022/04/16 06:56:56;;;;;;;44.03;29.77;;;;;;;7.16;93.51;103153.94;5157918;27;20030;-57
2022/04/16 06:59:22;;;;;;;43.00;30.10;;;;;;;7.21;92.85;103153.25;5157920;27;20018;-58
2022/04/16 07:01:47;;;;;;;39.95;27.40;;;;;;;7.29;92.73;103152.97;5157915;27;20022;-57
2022/04/16 07:04:13;;;;;;;40.78;27.58;;;;;;;7.34;92.16;103146.78;5158112;27;20459;-56
2022/04/16 07:06:42;;;;;;;38.80;27.25;;;;;;;7.43;92.65;103152.84;5158318;27;20030;-57
2022/04/16 07:09:08;;;;;;;41.75;27.80;;;;;;;7.52;92.25;103151.47;5157728;27;20031;-57
2022/04/16 07:11:33;;;;;;;40.53;29.25;;;;;;;7.61;91.56;103157.50;5157417;27;20029;-57
2022/04/16 07:13:59;;;;;;;39.30;27.02;;;;;;;7.69;91.30;103159.97;5138390;27;20022;-58
2022/04/16 07:16:24;;;;;;;39.85;26.52;;;;;;;7.74;90.75;103151.03;5157059;27;20022;-58
2022/04/16 07:18:49;;;;;;;38.60;27.27;;;;;;;7.79;90.31;103156.66;5156818;27;20041;-57
2022/04/16 07:21:14;;;;;;;38.17;25.08;;;;;;;7.85;89.98;103150.22;5156939;27;20026;-57
2022/04/16 07:23:40;;;;;;;39.80;27.50;;;;;;;7.91;89.94;103160.34;5156748;27;20490;-56
2022/04/16 07:26:05;;;;;;;37.42;25.23;;;;;;;8.01;89.28;103159.78;5156948;27;20150;-58
2022/04/16 07:28:30;;;;;;;40.33;27.38;;;;;;;8.08;89.27;103162.47;5156698;27;20530;-57
2022/04/16 07:30:55;;;;;;;38.92;27.48;;;;;;;8.10;88.35;103158.38;5156669;27;20031;-57
2022/04/16 07:33:21;;;;;;;38.08;27.77;;;;;;;8.18;88.53;103156.38;5156784;27;20019;-56
2022/04/16 07:35:47;;;;;;;37.45;25.38;;;;;;;8.24;88.53;103158.22;5156671;27;20023;-58
2022/04/16 07:38:12;;;;;;;35.72;25.38;;;;;;;8.34;88.14;103160.41;5155277;27;20408;-57
2022/04/16 07:40:38;;;;;;;36.85;25.90;;;;;;;8.39;87.96;103155.88;5156275;27;20029;-56
2022/04/16 07:43:03;;;;;;;37.20;27.80;;;;;;;8.47;87.00;103156.59;5156530;27;20046;-56
2022/04/16 07:45:29;;;;;;;39.28;25.98;;;;;;;8.56;87.35;103156.09;5156606;27;20054;-57
2022/04/16 07:47:54;;;;;;;37.53;26.60;;;;;;;8.65;86.55;103156.56;5156442;27;20033;-56
2022/04/16 07:50:20;;;;;;;36.70;25.92;;;;;;;8.74;86.49;103159.84;5137767;27;20027;-57
2022/04/16 07:52:46;;;;;;;36.53;25.63;;;;;;;8.87;86.27;103167.06;5156594;27;20023;-56
2022/04/16 07:55:12;;;;;;;36.30;24.77;;;;;;;8.93;84.49;103162.50;5156482;27;20335;-55
2022/04/16 07:57:38;;;;;;;33.40;23.98;;;;;;;8.98;84.65;103154.34;5156279;27;20097;-57
2022/04/16 08:00:05;;;;;;;35.63;25.70;;;;;;;8.99;83.68;103161.53;5156206;27;20026;-56
2022/04/16 08:02:30;;;;;;;36.80;25.60;;;;;;;9.10;84.17;103165.41;5156383;27;20114;-58
2022/04/16 08:04:56;;;;;;;34.90;22.48;;;;;;;9.19;83.42;103164.81;5156428;27;20102;-58
2022/04/16 08:07:21;;;;;;;35.83;25.75;;;;;;;9.26;82.37;103161.94;5156223;27;20482;-57
2022/04/16 08:09:46;;;;;;;36.88;25.35;;;;;;;9.30;82.57;103159.53;5156157;27;20061;-58
2022/04/16 08:12:12;;;;;;;35.63;25.13;;;;;;;9.41;82.08;103160.59;5156235;27;20101;-58
2022/04/16 08:14:37;;;;;;;36.20;25.70;;;;;;;9.44;81.60;103165.66;5137366;27;20034;-58
2022/04/16 08:17:02;;;;;;;32.97;23.90;;;;;;;9.52;81.25;103168.03;5156226;27;20030;-57
2022/04/16 08:19:27;;;;;;;33.63;23.52;;;;;;;9.66;81.63;103176.91;5155886;27;20022;-57
2022/04/16 08:21:53;;;;;;;31.05;22.88;;;;;;;9.79;79.76;103168.38;5155788;27;20390;-57
2022/04/16 08:26:53;;;;;;;31.35;22.25;;;;;;;9.96;78.37;103167.59;5155827;27;20035;-57
2022/04/16 08:29:19;;;;;;;32.38;22.98;;;;;;;10.05;79.26;103170.81;5137198;27;20034;-57
2022/04/16 08:31:44;;;;;;;32.35;22.02;;;;;;;10.18;79.75;103173.28;5155920;27;20062;-57
2022/04/16 08:34:10;;;;;;;32.10;22.63;;;;;;;10.27;77.57;103173.75;5155556;27;20023;-57
2022/04/16 08:36:36;;;;;;;32.30;22.05;;;;;;;10.35;77.46;103173.34;5155864;27;20043;-57
2022/04/16 08:39:04;;;;;;;32.15;22.88;;;;;;;10.45;77.57;103172.72;5156502;27;20474;-57
2022/04/16 08:41:30;;;;;;;31.40;22.02;;;;;;;10.57;76.94;103176.28;5155595;27;20019;-56
2022/04/16 08:43:57;;;;;;;31.40;21.77;;;;;;;10.71;76.13;103174.03;5155486;27;20030;-56
2022/04/16 08:46:24;;;;;;;28.70;21.27;;;;;;;10.75;74.68;103169.69;5155248;27;20023;-58
2022/04/16 08:48:49;;;;;;;32.58;21.08;;;;;;;10.73;74.29;103171.00;5155009;27;20436;-58
2022/04/16 08:51:15;;;;;;;29.02;19.98;;;;;;;10.78;74.23;103179.41;5155056;27;20064;-56
2022/04/16 08:53:41;;;;;;;28.13;19.55;;;;;;;10.82;72.73;103180.56;5155125;27;20073;-55
2022/04/16 08:56:06;;;;;;;28.90;19.95;;;;;;;10.90;72.71;103182.09;5155312;27;20462;-57
2022/04/16 08:58:31;;;;;;;29.80;20.27;;;;;;;10.93;71.92;103171.34;5155023;27;20079;-56
2022/04/16 09:00:57;;;;;;;28.85;20.15;;;;;;;11.02;72.31;103177.31;5155029;27;20071;-55
2022/04/16 09:03:30;;;;;;;28.77;20.63;;;;;;;11.07;72.28;103174.63;5154923;27;20068;-57
2022/04/16 09:05:55;;;;;;;28.23;19.20;;;;;;;11.14;71.38;103171.69;5155022;27;20027;-57
2022/04/16 09:08:27;;;;;;;28.20;20.05;;;;;;;11.27;71.39;103170.50;5155787;27;20506;-57
2022/04/16 09:11:04;;;;;;;27.13;19.08;;;;;;;11.39;70.41;103174.00;5155287;27;20018;-57
2022/04/16 09:13:29;;;;;;;25.50;18.17;;;;;;;11.52;69.71;103170.03;5155105;27;20054;-58
2022/04/16 09:16:05;;;;;;;27.88;17.75;;;;;;;11.70;68.73;103165.28;5155146;27;20026;-57
2022/04/16 09:18:30;;;;;;;27.15;18.80;;;;;;;11.79;68.75;103165.69;5155119;27;20031;-58
2022/04/16 09:20:56;;;;;;;28.77;18.40;;;;;;;11.82;68.54;103166.00;5155204;27;20034;-58
2022/04/16 09:23:22;;;;;;;27.08;19.83;;;;;;;11.77;67.93;103162.31;5154765;27;20050;-56
2022/04/16 09:25:48;;;;;;;28.88;19.58;;;;;;;11.86;67.91;103171.88;5135767;27;20135;-57
2022/04/16 09:28:15;;;;;;;28.92;19.92;;;;;;;11.87;67.84;103162.44;5155138;27;20037;-57
2022/04/16 09:30:52;;;;;;;26.75;18.00;;;;;;;11.96;68.54;103166.44;5155059;27;20038;-56
2022/04/16 09:33:18;;;;;;;28.83;20.48;;;;;;;12.09;67.02;103162.47;5154958;27;20031;-57
2022/04/16 09:35:43;;;;;;;28.48;18.63;;;;;;;12.26;67.77;103161.53;5136078;27;20027;-57
2022/04/16 09:38:12;;;;;;;27.02;17.88;;;;;;;12.39;66.15;103155.56;5154845;27;20033;-57
2022/04/16 09:40:37;;;;;;;25.52;16.67;;;;;;;12.53;65.49;103153.22;5134978;27;20027;-57
2022/04/16 09:43:04;;;;;;;24.83;16.35;;;;;;;12.63;63.59;103152.47;5154505;27;20031;-57
2022/04/16 09:45:31;;;;;;;25.02;16.35;;;;;;;12.69;62.73;103147.78;5154468;27;20018;-57
2022/04/16 09:47:57;;;;;;;22.40;14.15;;;;;;;12.68;59.61;103154.44;5154382;27;20033;-57
2022/04/16 09:50:24;;;;;;;24.10;14.50;;;;;;;12.72;60.03;103147.28;5154354;27;20110;-58
2022/04/16 09:52:53;;;;;;;23.38;14.93;;;;;;;12.75;58.99;103152.31;5154155;27;20041;-57
2022/04/16 09:55:27;;;;;;;22.67;14.18;;;;;;;12.86;58.68;103153.22;5154335;27;20093;-57
2022/04/16 09:57:59;;;;;;;21.02;13.25;;;;;;;12.85;57.47;103138.47;5154421;27;20030;-57
2022/04/16 10:00:25;;;;;;;21.88;13.30;;;;;;;12.99;58.62;103136.06;5154020;27;20423;-57
2022/04/16 10:02:50;;;;;;;23.02;15.00;;;;;;;12.99;58.62;103146.38;5153538;27;20045;-57
2022/04/16 10:05:16;;;;;;;22.25;14.55;;;;;;;13.01;58.31;103142.22;5154238;27;20022;-56
2022/04/16 10:07:45;;;;;;;24.15;15.50;;;;;;;13.00;58.99;103148.88;5135472;27;20486;-57
2022/04/16 10:10:17;;;;;;;24.63;15.63;;;;;;;12.96;59.64;103142.19;5154141;27;20046;-57
2022/04/16 10:13:01;;;;;;;23.35;14.57;;;;;;;12.97;58.29;103134.69;5154216;27;20027;-58
2022/04/16 10:15:55;;;;;;;21.38;13.23;;;;;;;13.16;57.06;103147.03;5154337;27;20030;-57
2022/04/16 10:18:21;;;;;;;21.75;13.43;;;;;;;13.09;56.88;103138.94;5135511;27;20137;-58
2022/04/16 10:20:50;;;;;;;21.38;13.63;;;;;;;13.16;55.64;103129.53;5154031;27;20102;-56
2022/04/16 10:23:28;;;;;;;21.23;13.07;;;;;;;13.22;55.08;103122.91;5154082;27;20118;-56
2022/04/16 10:26:01;;;;;;;20.00;11.45;;;;;;;13.40;53.23;103127.22;5154357;27;20049;-58
2022/04/16 10:28:35;;;;;;;19.77;10.77;;;;;;;13.54;53.59;103130.34;5154773;27;20033;-57
2022/04/16 10:31:01;;;;;;;19.42;11.07;;;;;;;13.52;51.58;103138.94;5154954;27;20515;-57
2022/04/16 10:33:28;;;;;;;19.65;11.13;;;;;;;13.56;52.41;103136.47;5154451;27;20014;-57
2022/04/16 10:35:58;;;;;;;20.10;10.73;;;;;;;13.61;52.03;103133.72;5154613;27;20044;-57
2022/04/16 10:38:34;;;;;;;19.52;10.52;;;;;;;13.60;51.15;103134.00;5154553;27;20026;-57
2022/04/16 10:41:02;;;;;;;19.38;11.25;;;;;;;13.62;51.33;103134.53;5135948;27;20439;-57
2022/04/16 10:43:32;;;;;;;19.83;10.77;;;;;;;13.71;51.37;103138.47;5154398;27;20031;-57
2022/04/16 10:46:09;;;;;;;18.63;10.93;;;;;;;13.89;51.78;103140.78;5154288;27;20031;-57
2022/04/16 10:48:36;;;;;;;19.52;10.40;;;;;;;13.92;50.00;103142.19;5154568;27;20033;-57
2022/04/16 10:51:03;;;;;;;18.98;9.98;;;;;;;13.93;49.07;103134.66;5154211;27;20030;-58
2022/04/16 10:53:32;;;;;;;18.77;10.35;;;;;;;14.07;49.75;103123.84;5153759;27;20197;-58
2022/04/16 10:56:09;;;;;;;18.38;9.90;;;;;;;14.12;49.89;103129.47;5153667;27;20471;-58
2022/04/16 10:58:35;;;;;;;19.90;10.65;;;;;;;14.08;49.29;103128.31;5135357;27;20121;-58
2022/04/16 11:01:06;;;;;;;18.95;10.45;;;;;;;14.03;50.13;103131.94;5134708;27;20109;-57
2022/04/16 11:03:33;;;;;;;20.25;10.85;;;;;;;14.14;49.86;103116.94;5153510;27;20019;-57
2022/04/16 11:06:07;;;;;;;20.08;11.20;;;;;;;14.23;50.58;103130.31;5153464;27;20033;-58
2022/04/16 11:08:36;;;;;;;;;;;;;;;14.23;50.76;103119.16;5135773;27;20066;-58
2022/04/16 11:11:02;;;;;;;20.38;11.27;;;;;;;14.27;51.09;103117.50;5153420;27;19915;-56
2022/04/16 11:13:33;;;;;;;19.90;11.20;;;;;;;14.32;49.65;103125.88;5156096;27;20071;-57
2022/04/16 11:15:59;;;;;;;19.40;11.15;;;;;;;14.31;49.68;103116.66;5157712;27;20050;-56
2022/04/16 11:18:26;;;;;;;19.60;11.93;;;;;;;14.31;50.01;103133.38;5157331;27;20075;-56
2022/04/16 11:20:57;;;;;;;20.58;11.40;;;;;;;14.30;50.22;103128.94;5157466;27;20050;-57
2022/04/16 11:23:27;;;;;;;21.00;11.70;;;;;;;14.32;49.83;103128.66;5157074;27;20059;-58
2022/04/16 11:34:20;;;;;;;19.52;11.05;;;;;;;14.12;48.77;103113.56;5157524;27;20102;-57
2022/04/16 11:36:50;;;;;;;19.85;11.60;;;;;;;14.19;50.05;103121.66;5156905;27;20051;-57